Time,TemperatureF,DewpointF,PressureIn,WindDirection,WindDirectionDegrees,WindSpeedMPH,WindSpeedGustMPH,Humidity,HourlyPrecipIn,Conditions,Clouds,dailyrainin,SoftwareType,DateUTC
2013-03-20 00:02:00,43.0,24.0,30.09,North,11,2.0,7.0,47,0.00,,,0.00,,2013-03-20 05:02:00,
2013-03-20 00:12:00,43.0,25.0,30.10,North,11,3.0,4.0,48,0.00,,,0.00,,2013-03-20 05:12:00,
2013-03-20 00:22:00,43.0,25.0,30.10,North,11,3.0,4.0,48,0.00,,,0.00,,2013-03-20 05:22:00,
2013-03-20 00:32:00,42.0,27.0,30.10,North,11,3.0,4.0,54,0.00,,,0.00,,2013-03-20 05:32:00,
2013-03-20 00:42:00,42.0,27.0,30.10,North,11,3.0,4.0,54,0.00,,,0.00,,2013-03-20 05:42:00,
2013-03-20 00:53:00,41.0,26.0,30.10,NNE,17,5.0,6.0,55,0.00,,,0.00,,2013-03-20 05:53:00,
2013-03-20 01:02:00,41.0,26.0,30.10,NNE,27,3.0,5.0,55,0.00,,,0.00,,2013-03-20 06:02:00,
2013-03-20 01:12:00,41.0,26.0,30.10,NNE,27,3.0,5.0,55,0.00,,,0.00,,2013-03-20 06:12:00,
2013-03-20 01:22:00,41.0,25.0,30.10,NE,35,4.0,6.0,53,0.00,,,0.00,,2013-03-20 06:22:00,
2013-03-20 01:32:00,41.0,25.0,30.10,NE,35,3.0,5.0,53,0.00,,,0.00,,2013-03-20 06:32:00,
2013-03-20 01:42:00,41.0,25.0,30.10,NE,35,3.0,5.0,53,0.00,,,0.00,,2013-03-20 06:42:00,
2013-03-20 01:53:00,41.0,24.0,30.10,NE,35,0.0,3.0,51,0.00,,,0.00,,2013-03-20 06:53:00,
2013-03-20 02:02:00,41.0,22.0,30.10,NE,37,2.0,6.0,47,0.00,,,0.00,,2013-03-20 07:02:00,
2013-03-20 02:12:00,41.0,22.0,30.10,NE,37,2.0,6.0,47,0.00,,,0.00,,2013-03-20 07:12:00,
2013-03-20 02:22:00,42.0,21.0,30.10,NE,34,6.0,7.0,43,0.00,,,0.00,,2013-03-20 07:22:00,
2013-03-20 02:32:00,42.0,22.0,30.10,NNE,31,5.0,8.0,44,0.00,,,0.00,,2013-03-20 07:32:00,
2013-03-20 02:42:00,42.0,22.0,30.10,NNE,31,5.0,8.0,44,0.00,,,0.00,,2013-03-20 07:42:00,
2013-03-20 02:52:00,41.0,21.0,30.10,NNE,20,6.0,7.0,44,0.00,,,0.00,,2013-03-20 07:52:00,
2013-03-20 03:02:00,41.0,21.0,30.09,North,7,4.0,7.0,45,0.00,,,0.00,,2013-03-20 08:02:00,
2013-03-20 03:12:00,41.0,21.0,30.09,North,7,4.0,7.0,45,0.00,,,0.00,,2013-03-20 08:12:00,
2013-03-20 03:22:00,41.0,21.0,30.09,North,3,4.0,6.0,45,0.00,,,0.00,,2013-03-20 08:22:00,
2013-03-20 03:32:00,41.0,21.0,30.08,North,3,3.0,6.0,45,0.00,,,0.00,,2013-03-20 08:32:00,
2013-03-20 03:42:00,40.0,21.0,30.08,North,3,2.0,3.0,47,0.00,,,0.00,,2013-03-20 08:42:00,
2013-03-20 03:52:00,40.0,21.0,30.08,North,3,2.0,3.0,47,0.00,,,0.00,,2013-03-20 08:52:00,
2013-03-20 04:02:00,40.0,22.0,30.07,North,3,0.0,3.0,49,0.00,,,0.00,,2013-03-20 09:02:00,
2013-03-20 04:12:00,40.0,22.0,30.07,North,3,0.0,3.0,49,0.00,,,0.00,,2013-03-20 09:12:00,
2013-03-20 04:22:00,39.0,23.0,30.07,North,3,0.0,1.0,53,0.00,,,0.00,,2013-03-20 09:22:00,
2013-03-20 04:32:00,39.0,25.0,30.08,North,3,0.0,0.0,57,0.00,,,0.00,,2013-03-20 09:32:00,
2013-03-20 04:43:00,39.0,25.0,30.08,North,3,0.0,0.0,57,0.00,,,0.00,,2013-03-20 09:43:00,
2013-03-20 04:53:00,38.0,26.0,30.06,North,3,0.0,0.0,62,0.00,,,0.00,,2013-03-20 09:53:00,
2013-03-20 05:03:00,39.0,25.0,30.07,North,3,0.0,1.0,58,0.00,,,0.00,,2013-03-20 10:03:00,
2013-03-20 05:12:00,39.0,25.0,30.07,North,3,0.0,1.0,58,0.00,,,0.00,,2013-03-20 10:12:00,
2013-03-20 05:22:00,39.0,25.0,30.07,North,3,0.0,2.0,57,0.00,,,0.00,,2013-03-20 10:22:00,
2013-03-20 05:32:00,39.0,25.0,30.08,North,360,2.0,4.0,57,0.00,,,0.00,,2013-03-20 10:32:00,
2013-03-20 05:42:00,39.0,25.0,30.08,North,360,2.0,4.0,57,0.00,,,0.00,,2013-03-20 10:42:00,
2013-03-20 05:53:00,39.0,23.0,30.09,North,360,0.0,3.0,53,0.00,,,0.00,,2013-03-20 10:53:00,
2013-03-20 06:02:00,40.0,24.0,30.09,North,360,2.0,3.0,52,0.00,,,0.00,,2013-03-20 11:02:00,
2013-03-20 06:12:00,40.0,24.0,30.09,North,360,2.0,3.0,52,0.00,,,0.00,,2013-03-20 11:12:00,
2013-03-20 06:22:00,40.0,24.0,30.09,North,7,4.0,6.0,52,0.00,,,0.00,,2013-03-20 11:22:00,
2013-03-20 06:32:00,40.0,24.0,30.09,North,4,4.0,6.0,52,0.00,,,0.00,,2013-03-20 11:32:00,
2013-03-20 06:42:00,40.0,24.0,30.09,North,4,4.0,6.0,52,0.00,,,0.00,,2013-03-20 11:42:00,
2013-03-20 06:52:00,40.0,25.0,30.08,NNE,21,3.0,6.0,54,0.00,,,0.00,,2013-03-20 11:52:00,
2013-03-20 07:02:00,39.0,24.0,30.09,NNE,21,3.0,5.0,54,0.00,,,0.00,,2013-03-20 12:02:00,
2013-03-20 07:12:00,39.0,24.0,30.09,NNE,21,3.0,5.0,54,0.00,,,0.00,,2013-03-20 12:12:00,
2013-03-20 07:22:00,39.0,23.0,30.09,NNE,20,1.0,3.0,52,0.00,,,0.00,,2013-03-20 12:22:00,
2013-03-20 07:32:00,39.0,23.0,30.09,NNE,20,0.0,2.0,53,0.00,,,0.00,,2013-03-20 12:32:00,
2013-03-20 07:42:00,39.0,23.0,30.09,NNE,20,0.0,2.0,53,0.00,,,0.00,,2013-03-20 12:42:00,
2013-03-20 07:52:00,40.0,24.0,30.10,NNE,20,0.0,2.0,53,0.00,,,0.00,,2013-03-20 12:52:00,
2013-03-20 08:03:00,40.0,24.0,30.10,NNE,17,2.0,5.0,53,0.00,,,0.00,,2013-03-20 13:03:00,
2013-03-20 08:12:00,40.0,24.0,30.10,NNE,17,2.0,5.0,53,0.00,,,0.00,,2013-03-20 13:12:00,
2013-03-20 08:22:00,40.0,26.0,30.11,NNE,17,0.0,5.0,56,0.00,,,0.00,,2013-03-20 13:22:00,
2013-03-20 08:32:00,41.0,26.0,30.11,NNE,17,2.0,6.0,54,0.00,,,0.00,,2013-03-20 13:32:00,
2013-03-20 08:42:00,41.0,26.0,30.11,NNE,17,2.0,6.0,54,0.00,,,0.00,,2013-03-20 13:42:00,
2013-03-20 08:53:00,42.0,26.0,30.11,NNE,17,2.0,4.0,52,0.00,,,0.00,,2013-03-20 13:53:00,
2013-03-20 09:02:00,43.0,23.0,30.12,NE,44,5.0,7.0,45,0.00,,,0.00,,2013-03-20 14:02:00,
2013-03-20 09:12:00,43.0,23.0,30.12,NE,44,5.0,7.0,45,0.00,,,0.00,,2013-03-20 14:12:00,
2013-03-20 09:22:00,43.0,22.0,30.12,NNE,23,4.0,7.0,42,0.00,,,0.00,,2013-03-20 14:22:00,
2013-03-20 09:33:00,44.0,22.0,30.11,North,360,3.0,7.0,42,0.00,,,0.00,,2013-03-20 14:33:00,
2013-03-20 09:42:00,44.0,22.0,30.11,North,360,3.0,7.0,42,0.00,,,0.00,,2013-03-20 14:42:00,
2013-03-20 09:52:00,45.0,22.0,30.11,North,7,2.0,6.0,39,0.00,,,0.00,,2013-03-20 14:52:00,
2013-03-20 10:02:00,46.0,21.0,30.11,North,4,3.0,4.0,37,0.00,,,0.00,,2013-03-20 15:02:00,
2013-03-20 10:12:00,46.0,17.0,30.11,North,357,0.0,6.0,31,0.00,,,0.00,,2013-03-20 15:12:00,
2013-03-20 10:22:00,46.0,17.0,30.11,North,357,0.0,6.0,31,0.00,,,0.00,,2013-03-20 15:22:00,
2013-03-20 10:33:00,48.0,16.0,30.11,NNE,13,1.0,7.0,27,0.00,,,0.00,,2013-03-20 15:33:00,
2013-03-20 10:43:00,48.0,16.0,30.11,NNE,13,1.0,7.0,27,0.00,,,0.00,,2013-03-20 15:43:00,
2013-03-20 10:53:00,50.0,17.0,30.10,NE,34,0.0,6.0,27,0.00,,,0.00,,2013-03-20 15:53:00,
2013-03-20 11:03:00,50.0,16.0,30.10,North,360,4.0,7.0,26,0.00,,,0.00,,2013-03-20 16:03:00,
2013-03-20 11:12:00,50.0,16.0,30.10,North,360,4.0,7.0,26,0.00,,,0.00,,2013-03-20 16:12:00,
2013-03-20 11:23:00,50.0,16.0,30.09,NW,308,7.0,12.0,25,0.00,,,0.00,,2013-03-20 16:23:00,
2013-03-20 11:32:00,50.0,16.0,30.09,WNW,284,5.0,16.0,25,0.00,,,0.00,,2013-03-20 16:32:00,
2013-03-20 11:42:00,50.0,16.0,30.09,WNW,284,5.0,16.0,25,0.00,,,0.00,,2013-03-20 16:42:00,
2013-03-20 11:53:00,51.0,19.0,30.09,WNW,295,9.0,18.0,28,0.00,,,0.00,,2013-03-20 16:53:00,
2013-03-20 12:03:00,51.0,20.0,30.09,NNW,333,10.0,16.0,29,0.00,,,0.00,,2013-03-20 17:03:00,
2013-03-20 12:12:00,51.0,20.0,30.09,NNW,333,10.0,16.0,29,0.00,,,0.00,,2013-03-20 17:12:00,
2013-03-20 12:22:00,52.0,22.0,30.08,NW,316,10.0,19.0,30,0.00,,,0.00,,2013-03-20 17:22:00,
2013-03-20 12:32:00,52.0,22.0,30.07,North,350,11.0,19.0,30,0.00,,,0.00,,2013-03-20 17:32:00,
2013-03-20 12:42:00,52.0,22.0,30.07,North,350,11.0,19.0,30,0.00,,,0.00,,2013-03-20 17:42:00,
2013-03-20 12:53:00,53.0,21.0,30.06,NW,320,11.0,17.0,28,0.00,,,0.00,,2013-03-20 17:53:00,
2013-03-20 13:02:00,54.0,24.0,30.05,North,353,9.0,13.0,31,0.00,,,0.00,,2013-03-20 18:02:00,
2013-03-20 13:12:00,54.0,24.0,30.05,North,353,9.0,13.0,31,0.00,,,0.00,,2013-03-20 18:12:00,
2013-03-20 13:22:00,54.0,23.0,30.05,NW,309,12.0,18.0,30,0.00,,,0.00,,2013-03-20 18:22:00,
2013-03-20 13:33:00,54.0,23.0,30.04,NNW,347,3.0,19.0,30,0.00,,,0.00,,2013-03-20 18:33:00,
2013-03-20 13:42:00,54.0,23.0,30.04,NNW,347,3.0,19.0,30,0.00,,,0.00,,2013-03-20 18:42:00,
2013-03-20 13:52:00,54.0,26.0,30.03,NW,308,12.0,19.0,33,0.00,,,0.00,,2013-03-20 18:52:00,
2013-03-20 14:02:00,54.0,23.0,30.02,NW,325,8.0,21.0,30,0.00,,,0.00,,2013-03-20 19:02:00,
2013-03-20 14:12:00,54.0,23.0,30.02,NW,325,8.0,21.0,30,0.00,,,0.00,,2013-03-20 19:12:00,
2013-03-20 14:22:00,55.0,25.0,30.01,NW,312,11.0,21.0,31,0.00,,,0.00,,2013-03-20 19:22:00,
2013-03-20 14:32:00,55.0,25.0,29.99,WNW,289,14.0,21.0,31,0.00,,,0.00,,2013-03-20 19:32:00,
2013-03-20 14:42:00,55.0,25.0,29.99,WNW,289,14.0,21.0,31,0.00,,,0.00,,2013-03-20 19:42:00,
2013-03-20 14:53:00,54.0,26.0,29.98,North,360,7.0,22.0,33,0.00,,,0.00,,2013-03-20 19:53:00,
2013-03-20 15:02:00,54.0,22.0,29.97,NNW,332,15.0,22.0,29,0.00,,,0.00,,2013-03-20 20:02:00,
2013-03-20 15:12:00,54.0,22.0,29.97,NNW,332,15.0,22.0,29,0.00,,,0.00,,2013-03-20 20:12:00,
2013-03-20 15:22:00,54.0,24.0,29.97,NW,306,14.0,22.0,31,0.00,,,0.00,,2013-03-20 20:22:00,
2013-03-20 15:32:00,55.0,23.0,29.96,NW,316,9.0,22.0,29,0.00,,,0.00,,2013-03-20 20:32:00,
2013-03-20 15:42:00,55.0,23.0,29.96,NW,316,9.0,22.0,29,0.00,,,0.00,,2013-03-20 20:42:00,
2013-03-20 15:53:00,54.0,24.0,29.96,NNW,347,12.0,19.0,31,0.00,,,0.00,,2013-03-20 20:53:00,
2013-03-20 16:02:00,53.0,22.0,29.96,NW,323,10.0,24.0,30,0.00,,,0.00,,2013-03-20 21:02:00,
2013-03-20 16:12:00,53.0,22.0,29.96,NW,323,10.0,24.0,30,0.00,,,0.00,,2013-03-20 21:12:00,
2013-03-20 16:22:00,53.0,22.0,29.95,NW,322,9.0,20.0,30,0.00,,,0.00,,2013-03-20 21:22:00,
2013-03-20 16:33:00,53.0,21.0,29.95,NW,308,15.0,21.0,28,0.00,,,0.00,,2013-03-20 21:33:00,
2013-03-20 16:42:00,53.0,21.0,29.95,NW,308,15.0,21.0,28,0.00,,,0.00,,2013-03-20 21:42:00,
2013-03-20 16:53:00,54.0,22.0,29.94,North,352,18.0,33.0,28,0.00,,,0.00,,2013-03-20 21:53:00,
2013-03-20 17:03:00,54.0,22.0,29.93,WNW,296,10.0,29.0,28,0.00,,,0.00,,2013-03-20 22:03:00,
2013-03-20 17:12:00,54.0,22.0,29.93,WNW,296,10.0,29.0,28,0.00,,,0.00,,2013-03-20 22:12:00,
2013-03-20 17:23:00,53.0,21.0,29.94,WNW,294,13.0,25.0,28,0.00,,,0.00,,2013-03-20 22:23:00,
2013-03-20 17:32:00,52.0,22.0,29.94,NNW,332,14.0,21.0,30,0.00,,,0.00,,2013-03-20 22:32:00,
2013-03-20 17:42:00,52.0,22.0,29.94,NNW,332,14.0,21.0,30,0.00,,,0.00,,2013-03-20 22:42:00,
2013-03-20 17:52:00,52.0,22.0,29.93,WNW,294,16.0,21.0,30,0.00,,,0.00,,2013-03-20 22:52:00,
2013-03-20 18:02:00,53.0,24.0,29.94,NW,312,16.0,20.0,32,0.00,,,0.00,,2013-03-20 23:02:00,
2013-03-20 18:12:00,53.0,24.0,29.94,NW,312,16.0,20.0,32,0.00,,,0.00,,2013-03-20 23:12:00,
2013-03-20 18:22:00,53.0,24.0,29.93,WNW,298,11.0,24.0,32,0.00,,,0.00,,2013-03-20 23:22:00,
2013-03-20 18:32:00,52.0,23.0,29.94,NW,313,17.0,22.0,32,0.00,,,0.00,,2013-03-20 23:32:00,
2013-03-20 18:42:00,52.0,23.0,29.94,NW,313,17.0,22.0,32,0.00,,,0.00,,2013-03-20 23:42:00,
2013-03-20 18:53:00,50.0,23.0,29.94,NW,315,14.0,26.0,34,0.00,,,0.00,,2013-03-20 23:53:00,
2013-03-20 19:02:00,50.0,23.0,29.94,NW,304,13.0,22.0,35,0.00,,,0.00,,2013-03-21 00:02:00,
2013-03-20 19:12:00,50.0,23.0,29.94,NW,304,13.0,22.0,35,0.00,,,0.00,,2013-03-21 00:12:00,
2013-03-20 19:23:00,49.0,24.0,29.94,NW,320,10.0,17.0,37,0.00,,,0.00,,2013-03-21 00:23:00,
2013-03-20 19:32:00,48.0,24.0,29.95,NW,320,13.0,18.0,39,0.00,,,0.00,,2013-03-21 00:32:00,
2013-03-20 19:42:00,48.0,24.0,29.95,NW,320,13.0,18.0,39,0.00,,,0.00,,2013-03-21 00:42:00,
2013-03-20 19:52:00,47.0,25.0,29.95,NW,320,10.0,17.0,41,0.00,,,0.00,,2013-03-21 00:52:00,
2013-03-20 20:02:00,46.0,24.0,29.96,NW,305,12.0,20.0,42,0.00,,,0.00,,2013-03-21 01:02:00,
2013-03-20 20:12:00,46.0,24.0,29.96,NW,305,12.0,20.0,42,0.00,,,0.00,,2013-03-21 01:12:00,
2013-03-20 20:22:00,46.0,25.0,29.96,NNW,347,10.0,18.0,44,0.00,,,0.00,,2013-03-21 01:22:00,
2013-03-20 20:32:00,45.0,25.0,29.96,NW,318,9.0,17.0,46,0.00,,,0.00,,2013-03-21 01:32:00,
2013-03-20 20:42:00,45.0,25.0,29.96,NW,318,9.0,17.0,46,0.00,,,0.00,,2013-03-21 01:42:00,
2013-03-20 20:53:00,45.0,25.0,29.96,NW,325,8.0,17.0,45,0.00,,,0.00,,2013-03-21 01:53:00,
2013-03-20 21:02:00,44.0,25.0,29.97,NW,326,5.0,11.0,47,0.00,,,0.00,,2013-03-21 02:02:00,
2013-03-20 21:12:00,44.0,25.0,29.97,NW,326,5.0,11.0,47,0.00,,,0.00,,2013-03-21 02:12:00,
2013-03-20 21:22:00,44.0,26.0,29.97,NNW,340,6.0,8.0,48,0.00,,,0.00,,2013-03-21 02:22:00,
2013-03-20 21:32:00,44.0,25.0,29.97,NW,319,7.0,11.0,47,0.00,,,0.00,,2013-03-21 02:32:00,
2013-03-20 21:42:00,44.0,25.0,29.97,NW,319,7.0,11.0,47,0.00,,,0.00,,2013-03-21 02:42:00,
2013-03-20 21:52:00,44.0,25.0,29.97,NW,319,7.0,11.0,47,0.00,,,0.00,,2013-03-21 02:52:00,
2013-03-20 22:02:00,43.0,25.0,29.97,NW,319,6.0,8.0,48,0.00,,,0.00,,2013-03-21 03:02:00,
2013-03-20 22:12:00,43.0,25.0,29.97,NW,319,6.0,8.0,48,0.00,,,0.00,,2013-03-21 03:12:00,
2013-03-20 22:22:00,43.0,25.0,29.97,NW,325,2.0,7.0,48,0.00,,,0.00,,2013-03-21 03:22:00,
2013-03-20 22:32:00,42.0,24.0,29.96,NW,323,4.0,6.0,49,0.00,,,0.00,,2013-03-21 03:32:00,
2013-03-20 22:43:00,42.0,24.0,29.96,NW,323,4.0,6.0,49,0.00,,,0.00,,2013-03-21 03:43:00,
2013-03-20 22:53:00,42.0,25.0,29.96,NW,308,2.0,7.0,50,0.00,,,0.00,,2013-03-21 03:53:00,
2013-03-20 23:03:00,41.0,24.0,29.96,NW,323,4.0,6.0,51,0.00,,,0.00,,2013-03-21 04:03:00,
2013-03-20 23:13:00,41.0,24.0,29.96,NW,323,4.0,6.0,51,0.00,,,0.00,,2013-03-21 04:13:00,
2013-03-20 23:23:00,41.0,25.0,29.96,NNW,336,3.0,6.0,53,0.00,,,0.00,,2013-03-21 04:23:00,
2013-03-20 23:32:00,40.0,28.0,29.97,NE,52,6.0,11.0,61,0.00,,,0.00,,2013-03-21 04:32:00,
2013-03-20 23:43:00,40.0,28.0,29.97,NE,52,6.0,11.0,61,0.00,,,0.00,,2013-03-21 04:43:00,
2013-03-20 23:53:00,39.0,28.0,29.97,NNE,23,7.0,12.0,65,0.00,,,0.00,,2013-03-21 04:53:00,